aviador You're here:

KRCM Decoded Metar

in _UNIDENTIFIED
Report Time2017-07-25 20:35:00
UTC Time2017-07-25 20:40:49
Flight Rules vfr VFR
Wind070° at 03 kt
W.Decomp.*RWY 36: 1.4 kt HW 2.7 kt RCW
RWY 13: 1.2 kt HW 2.8 kt LCW
W.Rank070° ranks 25
Current wind is below 070° avg. (5.9)
Visibility9999 m
Phenomena:N/A
Clouds:Scattered 043 Hf
Expected CloudBase > 4,400 ft AGL from Temp-Dew spread
CeilingNone
Temp33°C (ISA +20)
Dew Point22°C (52% RH)
Heat Index36.9°C
QNH1018 hPa
Density Alt3,212 ft
Elevation801 ft
Report Wrong Elevation
Raw Report
KRCM 252035Z AUTO 07003KT 10SM SCT043 33/22 A3005 RMK AO2=

Extra information for KRCM:More info

Metar Taf Metar & Taf Last 4 Metars F.Rules Stats Wind Profile Meteogram Temp Stats Metar ALERT Operation Metar Decoded Social comments